Time;durP1;ratioP1;P1;durP2;ratioP2;P2;SDS_P1;SDS_P2;PMS_P1;PMS_P2;Temp;Humidity;BMP_temperature;BMP_pressure;BME280_temperature;BME280_humidity;BME280_pressure;Samples;Min_cycle;Max_cycle;Signal;HPM_P1;HPM_P2
2021/12/18 00:00:29;;;;;;;11.52;6.63;;;8.60;59.80;;;;;;5056877;28;20121;-82
2021/12/18 00:02:55;;;;;;;13.55;8.35;;;8.60;59.60;;;;;;5074832;28;20028;-82
2021/12/18 00:05:20;;;;;;;14.48;8.02;;;8.80;59.20;;;;;;5074913;28;20366;-81
2021/12/18 00:07:46;;;;;;;16.83;9.35;;;8.60;59.40;;;;;;5074719;28;20012;-82
2021/12/18 00:10:12;;;;;;;12.13;6.85;;;8.40;59.80;;;;;;5074663;28;20090;-83
2021/12/18 00:12:42;;;;;;;11.23;6.28;;;8.40;59.50;;;;;;5074615;28;20521;-82
2021/12/18 00:15:08;;;;;;;17.15;9.85;;;8.40;60.00;;;;;;5056912;28;20478;-81
2021/12/18 00:17:34;;;;;;;11.32;6.97;;;8.50;59.60;;;;;;5056500;28;20020;-80
2021/12/18 00:19:59;;;;;;;13.30;8.18;;;8.40;60.30;;;;;;5057068;28;20025;-81
2021/12/18 00:22:25;;;;;;;9.93;5.97;;;8.20;60.20;;;;;;5056778;28;20166;-80
2021/12/18 00:24:51;;;;;;;19.27;9.90;;;7.90;61.20;;;;;;5056490;28;20027;-81
2021/12/18 00:27:16;;;;;;;18.20;10.38;;;8.00;61.00;;;;;;5056708;28;20024;-81
2021/12/18 00:29:42;;;;;;;28.98;14.45;;;8.00;60.70;;;;;;5056421;28;20020;-81
2021/12/18 00:32:08;;;;;;;37.72;18.08;;;8.10;60.60;;;;;;5056436;28;20371;-80
2021/12/18 00:34:34;;;;;;;10.63;5.13;;;8.00;60.80;;;;;;5056281;28;20036;-81
2021/12/18 00:36:59;;;;;;;15.75;9.50;;;8.20;61.00;;;;;;5056472;28;20028;-82
2021/12/18 00:39:28;;;;;;;29.48;14.38;;;7.80;60.90;;;;;;5056348;28;20013;-80
2021/12/18 00:42:44;;;;;;;33.30;14.63;;;7.70;61.60;;;;;;5056524;28;20535;-81
2021/12/18 00:44:39;;;;;;;50.45;21.58;;;7.50;61.90;;;;;;5059474;28;20025;-82
2021/12/18 00:47:05;;;;;;;38.58;19.08;;;8.10;61.00;;;;;;5056233;28;20035;-82
2021/12/18 00:49:31;;;;;;;51.95;23.05;;;8.10;60.80;;;;;;5056314;28;20017;-81
2021/12/18 00:51:57;;;;;;;29.70;15.10;;;8.10;60.80;;;;;;5056080;28;20361;-83
2021/12/18 00:54:27;;;;;;;31.17;14.13;;;8.10;60.90;;;;;;5056105;28;20124;-85
2021/12/18 00:56:52;;;;;;;31.60;15.77;;;8.00;61.30;;;;;;5056854;28;20017;-82
2021/12/18 00:59:18;;;;;;;46.95;20.13;;;7.90;61.20;;;;;;5056319;28;20029;-84
2021/12/18 01:01:46;;;;;;;21.10;10.02;;;8.30;61.00;;;;;;5056333;28;20081;-82
2021/12/18 01:04:12;;;;;;;31.50;16.02;;;8.30;60.50;;;;;;5056072;28;20017;-83
2021/12/18 01:06:37;;;;;;;40.58;21.27;;;8.30;60.50;;;;;;5056042;28;20379;-82
2021/12/18 01:09:04;;;;;;;45.22;28.23;;;8.40;60.20;;;;;;5055929;28;20020;-84
2021/12/18 01:11:43;;;;;;;26.58;16.83;;;7.90;61.30;;;;;;5055768;28;20032;-81
2021/12/18 01:22:41;;;;;;;26.13;17.65;;;8.10;60.90;;;;;;5073586;28;20051;-81
2021/12/18 01:25:09;;;;;;;20.27;12.27;;;8.70;60.00;;;;;;5073567;28;20056;-80
2021/12/18 01:27:34;;;;;;;15.40;10.00;;;8.60;59.70;;;;;;5073519;28;20028;-82
2021/12/18 01:30:01;;;;;;;18.50;9.68;;;8.50;60.10;;;;;;5055697;28;20027;-81
2021/12/18 01:32:30;;;;;;;12.98;6.88;;;8.20;60.10;;;;;;5055502;28;20101;-81
2021/12/18 01:34:55;;;;;;;15.80;8.65;;;8.20;60.70;;;;;;5055505;28;20024;-80
2021/12/18 01:37:21;;;;;;;18.33;8.90;;;8.20;60.40;;;;;;5055366;28;20027;-79
2021/12/18 01:39:47;;;;;;;18.38;9.77;;;8.50;60.00;;;;;;5055252;28;20511;-80
2021/12/18 01:52:53;;;;;;;12.93;8.25;;;8.30;60.50;;;;;;5073098;28;20054;-82
2021/12/18 01:55:20;;;;;;;33.25;22.63;;;8.40;60.10;;;;;;5054781;28;20086;-81
2021/12/18 01:57:45;;;;;;;15.50;7.00;;;8.70;59.80;;;;;;5073279;28;20376;-81
2021/12/18 02:00:22;;;;;;;9.43;5.30;;;8.70;59.70;;;;;;5055755;28;20025;-82
2021/12/18 02:02:48;;;;;;;12.63;5.15;;;8.70;59.30;;;;;;5055137;28;20017;-82
2021/12/18 02:05:14;;;;;;;10.05;5.18;;;8.60;59.60;;;;;;5055230;28;20035;-82
2021/12/18 02:07:41;;;;;;;11.18;5.10;;;8.70;59.60;;;;;;5073331;28;20416;-83
2021/12/18 02:10:16;;;;;;;8.88;4.85;;;8.90;59.00;;;;;;5055169;28;20030;-81
2021/12/18 02:20:49;;;;;;;11.77;4.95;;;8.70;59.70;;;;;;5076720;28;20066;-81
2021/12/18 02:23:15;;;;;;;13.98;5.85;;;8.80;59.50;;;;;;5059053;28;20013;-80
2021/12/18 02:25:42;;;;;;;12.52;5.50;;;8.70;59.90;;;;;;5058872;28;20025;-81
2021/12/18 02:28:17;;;;;;;10.52;5.05;;;8.70;59.70;;;;;;5076944;28;20066;-83
2021/12/18 02:30:43;;;;;;;12.68;5.78;;;8.60;59.90;;;;;;5058978;28;20479;-81
2021/12/18 02:33:10;;;;;;;12.93;5.70;;;8.90;59.60;;;;;;5076616;28;20037;-83
2021/12/18 02:35:59;;;;;;;14.27;5.95;;;8.90;59.30;;;;;;5058742;28;20031;-81
2021/12/18 02:38:43;;;;;;;11.43;5.13;;;9.00;59.40;;;;;;5058651;28;20120;-80
2021/12/18 02:41:21;;;;;;;9.85;5.57;;;9.00;58.90;;;;;;5058745;28;20024;-82
2021/12/18 02:43:47;;;;;;;12.18;5.53;;;8.60;60.00;;;;;;5076587;28;20428;-80
2021/12/18 02:46:17;;;;;;;9.60;5.45;;;8.60;59.80;;;;;;5058858;28;20490;-81
2021/12/18 02:48:43;;;;;;;10.65;5.72;;;8.70;59.80;;;;;;5059010;28;20028;-83
2021/12/18 02:51:11;;;;;;;12.63;6.10;;;8.90;59.40;;;;;;5058635;28;20021;-81
2021/12/18 02:53:40;;;;;;;10.60;5.53;;;9.20;58.80;;;;;;5058156;28;20056;-81
2021/12/18 02:56:09;;;;;;;10.80;5.60;;;9.60;57.80;;;;;;5058197;28;20028;-80
2021/12/18 02:58:42;;;;;;;10.95;5.63;;;9.50;57.50;;;;;;5058319;28;20023;-82
2021/12/18 03:01:10;;;;;;;9.73;5.45;;;9.50;57.50;;;;;;5058216;28;20020;-80
2021/12/18 03:03:39;;;;;;;11.75;5.18;;;9.40;57.90;;;;;;5058465;28;20119;-80
2021/12/18 03:27:21;;;;;;;12.40;5.32;;;8.60;59.00;;;;;;5076228;28;20078;-79
2021/12/18 03:29:47;;;;;;;9.73;5.38;;;8.30;59.70;;;;;;5057417;28;20399;-80
2021/12/18 03:32:13;;;;;;;11.57;5.55;;;8.50;59.20;;;;;;5057383;28;20532;-80
2021/12/18 03:34:39;;;;;;;11.98;6.00;;;8.70;59.40;;;;;;5057707;28;20060;-79
2021/12/18 03:37:05;;;;;;;9.57;5.50;;;8.80;58.80;;;;;;5057511;28;20553;-78
2021/12/18 03:39:31;;;;;;;12.77;6.00;;;9.00;58.60;;;;;;5075433;28;20028;-79
2021/12/18 03:41:57;;;;;;;13.10;6.03;;;8.90;58.30;;;;;;5057611;28;20032;-79
2021/12/18 03:44:23;;;;;;;10.77;5.25;;;8.90;58.10;;;;;;5057480;28;20078;-79
2021/12/18 03:46:50;;;;;;;13.30;5.57;;;8.70;59.10;;;;;;5057395;28;20025;-78
2021/12/18 03:49:16;;;;;;;15.38;6.35;;;8.80;58.70;;;;;;5057200;28;20520;-78
2021/12/18 03:51:42;;;;;;;9.68;5.13;;;8.80;58.50;;;;;;5075146;28;20020;-79
2021/12/18 03:54:08;;;;;;;9.52;5.07;;;8.80;58.30;;;;;;5074900;28;20570;-79
2021/12/18 03:56:34;;;;;;;9.02;5.20;;;9.00;58.30;;;;;;5057071;28;20108;-79
2021/12/18 03:59:00;;;;;;;12.30;5.68;;;8.90;58.30;;;;;;5057129;28;20021;-79
2021/12/18 04:01:26;;;;;;;12.25;5.93;;;8.90;58.40;;;;;;5057367;28;20043;-79
2021/12/18 04:03:54;;;;;;;11.07;5.72;;;8.90;58.10;;;;;;5057150;28;20394;-79
2021/12/18 04:06:20;;;;;;;12.43;5.50;;;9.00;58.00;;;;;;5057042;28;20016;-79
2021/12/18 04:08:46;;;;;;;9.98;5.65;;;9.00;57.70;;;;;;5057038;28;20024;-82
2021/12/18 04:11:12;;;;;;;9.18;5.30;;;8.70;57.90;;;;;;5057000;28;20027;-80
2021/12/18 04:13:43;;;;;;;13.55;5.70;;;8.60;58.60;;;;;;5074820;28;20085;-79
2021/12/18 04:16:09;;;;;;;10.98;5.15;;;8.40;59.20;;;;;;5057211;28;20021;-81
2021/12/18 04:18:35;;;;;;;11.48;5.32;;;8.40;59.40;;;;;;5056909;28;20082;-81
2021/12/18 04:21:02;;;;;;;11.55;5.75;;;8.20;59.00;;;;;;5056938;28;20017;-82
2021/12/18 04:23:28;;;;;;;12.65;5.63;;;8.10;59.60;;;;;;5056839;28;20043;-81
2021/12/18 04:25:55;;;;;;;13.88;6.00;;;8.00;60.20;;;;;;5056882;28;20363;-81
2021/12/18 04:28:25;;;;;;;9.40;5.13;;;8.00;60.10;;;;;;5056725;28;20031;-82
2021/12/18 04:30:51;;;;;;;13.88;6.13;;;8.10;59.90;;;;;;5074611;28;20021;-82
2021/12/18 04:33:18;;;;;;;9.55;5.90;;;8.20;59.70;;;;;;5056738;28;20047;-83
2021/12/18 04:35:44;;;;;;;12.82;4.95;;;7.90;60.10;;;;;;5056543;28;20024;-83
2021/12/18 04:38:10;;;;;;;12.63;5.43;;;7.90;60.30;;;;;;5055415;28;20054;-79
2021/12/18 04:40:36;;;;;;;12.00;5.55;;;7.90;60.30;;;;;;5074448;28;20042;-79
2021/12/18 04:43:03;;;;;;;11.05;5.20;;;8.00;59.60;;;;;;5056319;28;20035;-79
2021/12/18 04:45:29;;;;;;;11.57;5.95;;;7.90;60.00;;;;;;5074206;28;20066;-80
2021/12/18 04:47:57;;;;;;;12.50;6.18;;;7.90;60.00;;;;;;5056175;28;20024;-82
2021/12/18 04:50:23;;;;;;;11.90;5.78;;;8.10;59.30;;;;;;5056244;28;20062;-79
2021/12/18 04:52:49;;;;;;;9.27;5.30;;;8.10;59.10;;;;;;5074261;28;20368;-80
2021/12/18 04:55:16;;;;;;;11.32;5.57;;;7.70;59.40;;;;;;5061243;28;20048;-79
2021/12/18 04:57:43;;;;;;;10.38;5.28;;;7.70;60.10;;;;;;5071938;28;20040;-80
2021/12/18 05:00:12;;;;;;;10.63;5.82;;;7.90;60.00;;;;;;5073925;28;20020;-80
2021/12/18 05:02:41;;;;;;;13.75;5.80;;;8.10;59.80;;;;;;5055819;28;20078;-79
2021/12/18 05:05:08;;;;;;;12.55;6.22;;;8.20;59.40;;;;;;5055889;28;20032;-79
2021/12/18 05:07:34;;;;;;;11.15;5.60;;;8.20;59.40;;;;;;5073938;28;20406;-79
2021/12/18 05:10:00;;;;;;;9.05;5.45;;;7.90;60.00;;;;;;5055750;28;20020;-80
2021/12/18 05:12:26;;;;;;;10.15;5.53;;;7.80;59.90;;;;;;5065326;28;20364;-80
2021/12/18 05:14:52;;;;;;;11.55;6.07;;;7.80;60.30;;;;;;5093946;28;20027;-78
2021/12/18 05:17:18;;;;;;;16.05;5.70;;;8.00;59.30;;;;;;5075728;28;20020;-80
2021/12/18 05:19:43;;;;;;;12.65;6.00;;;8.20;59.10;;;;;;5089352;28;20020;-79
2021/12/18 05:22:09;;;;;;;11.32;5.65;;;8.30;58.70;;;;;;5055523;28;20056;-80
2021/12/18 05:24:35;;;;;;;9.48;5.05;;;8.10;58.60;;;;;;5073331;28;20421;-81
2021/12/18 05:27:01;;;;;;;11.07;5.57;;;7.90;59.10;;;;;;5059784;28;20024;-78
2021/12/18 05:29:26;;;;;;;11.15;6.30;;;7.90;60.00;;;;;;5055736;28;20115;-78
2021/12/18 05:31:52;;;;;;;15.20;6.63;;;8.20;59.40;;;;;;5052727;28;20021;-80
2021/12/18 05:34:23;;;;;;;10.45;5.88;;;8.20;58.70;;;;;;5053165;28;20029;-79
2021/12/18 05:37:14;;;;;;;12.23;5.72;;;8.00;59.30;;;;;;5035732;28;20117;-78
2021/12/18 05:39:36;;;;;;;11.75;5.93;;;8.20;59.00;;;;;;5053077;28;20037;-81
2021/12/18 05:42:03;;;;;;;12.20;6.32;;;8.50;58.10;;;;;;5035499;28;20024;-79
2021/12/18 05:44:28;;;;;;;13.23;6.18;;;8.30;58.20;;;;;;5035062;28;20341;-77
2021/12/18 05:46:55;;;;;;;10.70;5.30;;;8.40;58.10;;;;;;5035407;28;20479;-80
2021/12/18 05:49:20;;;;;;;12.23;6.40;;;8.20;58.20;;;;;;5035162;28;20021;-79
2021/12/18 05:51:46;;;;;;;11.48;6.03;;;8.30;58.00;;;;;;5035519;28;20082;-83
2021/12/18 05:54:14;;;;;;;15.45;6.32;;;8.20;58.30;;;;;;5035185;28;20037;-79
2021/12/18 05:56:41;;;;;;;13.93;6.10;;;8.20;58.80;;;;;;5035326;28;20111;-79
2021/12/18 05:59:07;;;;;;;10.15;5.40;;;8.30;57.70;;;;;;5053245;28;20090;-82
2021/12/18 06:01:33;;;;;;;14.00;6.00;;;8.40;57.80;;;;;;5035154;28;20447;-80
2021/12/18 06:03:59;;;;;;;9.60;5.50;;;8.50;57.60;;;;;;5053026;28;20353;-80
2021/12/18 06:06:25;;;;;;;11.63;5.85;;;8.60;57.00;;;;;;5035380;28;20112;-79
2021/12/18 06:08:52;;;;;;;13.73;6.80;;;8.20;57.50;;;;;;5035084;28;20516;-80
2021/12/18 06:11:20;;;;;;;12.80;5.88;;;8.60;56.80;;;;;;5034980;28;20448;-79
2021/12/18 06:13:49;;;;;;;10.52;6.22;;;8.90;56.40;;;;;;5035228;28;20495;-80
2021/12/18 06:16:17;;;;;;;12.68;6.65;;;9.20;55.70;;;;;;5054130;28;20024;-80
2021/12/18 06:18:45;;;;;;;10.90;5.53;;;9.50;55.00;;;;;;5055095;28;20025;-80
2021/12/18 06:21:15;;;;;;;14.88;6.57;;;9.30;54.30;;;;;;5072965;28;20402;-80
2021/12/18 06:23:41;;;;;;;14.32;6.88;;;9.30;55.00;;;;;;5054884;28;20392;-79
2021/12/18 06:26:07;;;;;;;8.85;5.28;;;9.10;55.20;;;;;;5072443;28;20028;-80
2021/12/18 06:28:33;;;;;;;14.13;5.75;;;9.00;55.00;;;;;;5054681;28;20039;-80
2021/12/18 06:31:01;;;;;;;11.40;5.85;;;8.90;55.60;;;;;;5055053;28;20384;-87
2021/12/18 06:33:27;;;;;;;10.93;5.60;;;8.50;55.60;;;;;;5076187;28;20506;-77
2021/12/18 06:35:52;;;;;;;11.10;5.72;;;8.30;56.60;;;;;;5071451;28;20083;-83
2021/12/18 06:38:18;;;;;;;12.88;5.93;;;8.60;55.50;;;;;;5052924;28;20111;-80
2021/12/18 06:40:44;;;;;;;11.77;5.22;;;8.50;55.80;;;;;;5053910;28;20356;-81
2021/12/18 06:43:10;;;;;;;11.13;5.25;;;8.80;55.30;;;;;;5053393;28;20056;-81
2021/12/18 06:45:36;;;;;;;9.88;5.10;;;9.10;54.70;;;;;;5071113;28;20021;-81
2021/12/18 06:48:01;;;;;;;10.15;5.25;;;9.00;54.40;;;;;;5052568;28;20032;-81
2021/12/18 06:50:27;;;;;;;15.30;6.47;;;9.00;55.10;;;;;;5051961;28;20056;-85
2021/12/18 06:52:53;;;;;;;13.73;8.02;;;8.80;55.00;;;;;;5052211;28;20025;-80
2021/12/18 06:55:20;;;;;;;10.40;6.45;;;9.20;54.70;;;;;;5052252;28;20105;-79
2021/12/18 06:57:47;;;;;;;12.23;5.88;;;9.20;53.90;;;;;;5052011;28;20043;-79
2021/12/18 07:00:14;;;;;;;9.80;5.93;;;9.00;54.60;;;;;;5071311;28;20371;-81
2021/12/18 07:02:41;;;;;;;8.82;4.95;;;9.10;54.40;;;;;;5055564;28;20027;-82
2021/12/18 07:05:07;;;;;;;15.05;7.40;;;9.00;53.90;;;;;;5056040;28;20112;-80
2021/12/18 07:07:35;;;;;;;39.90;19.08;;;9.10;54.00;;;;;;5073522;28;20024;-82
2021/12/18 07:10:00;;;;;;;10.27;5.45;;;8.80;54.20;;;;;;5055850;28;20025;-85
2021/12/18 07:12:26;;;;;;;11.20;7.40;;;8.80;55.00;;;;;;5056210;28;20027;-80
2021/12/18 07:14:52;;;;;;;12.63;5.88;;;8.90;54.50;;;;;;5081713;28;20067;-83
2021/12/18 07:17:18;;;;;;;10.00;5.88;;;9.00;54.30;;;;;;5063384;28;20371;-80
2021/12/18 07:19:46;;;;;;;10.75;5.53;;;9.10;54.10;;;;;;5056091;28;20099;-83
2021/12/18 07:22:11;;;;;;;9.25;5.65;;;9.00;54.10;;;;;;5057172;28;20016;-80
2021/12/18 07:24:37;;;;;;;9.88;5.03;;;9.10;54.30;;;;;;5074593;28;20089;-78
2021/12/18 07:27:03;;;;;;;10.23;5.82;;;8.80;54.40;;;;;;5042490;28;20024;-81
2021/12/18 07:29:29;;;;;;;9.48;5.05;;;9.00;54.50;;;;;;5056246;28;20059;-81
2021/12/18 07:31:55;;;;;;;10.07;4.88;;;9.20;54.30;;;;;;5055708;28;20085;-81
2021/12/18 07:34:20;;;;;;;10.10;4.63;;;9.20;53.70;;;;;;4706018;28;10000024;-80
2021/12/18 07:36:46;;;;;;;8.77;4.50;;;9.30;54.10;;;;;;5073882;28;20024;-80
2021/12/18 07:39:12;;;;;;;9.88;5.20;;;9.30;53.80;;;;;;5056710;28;20063;-83
2021/12/18 07:41:45;;;;;;;9.38;4.93;;;9.20;54.00;;;;;;5073771;28;20063;-80
2021/12/18 07:44:11;;;;;;;8.38;4.50;;;9.50;53.70;;;;;;5055605;28;20032;-81
2021/12/18 07:46:38;;;;;;;8.05;4.45;;;9.40;53.40;;;;;;5056044;28;20025;-81
2021/12/18 07:49:05;;;;;;;10.80;4.88;;;9.20;54.00;;;;;;5055927;28;20025;-84
2021/12/18 07:51:31;;;;;;;10.85;4.75;;;8.60;54.40;;;;;;5055439;28;20034;-84
2021/12/18 07:53:57;;;;;;;11.40;5.68;;;8.80;54.90;;;;;;5072535;28;20048;-82
2021/12/18 07:56:24;;;;;;;13.85;9.00;;;9.00;54.80;;;;;;5055825;28;20082;-82
2021/12/18 07:58:51;;;;;;;15.60;6.97;;;9.00;54.70;;;;;;5057501;28;20025;-82
2021/12/18 08:01:17;;;;;;;12.10;6.30;;;8.90;55.00;;;;;;5057341;28;20427;-84
2021/12/18 08:03:43;;;;;;;17.73;9.65;;;9.00;55.50;;;;;;5057479;28;20032;-86
2021/12/18 08:06:09;;;;;;;10.57;5.65;;;9.40;54.70;;;;;;5057726;28;20020;-81
2021/12/18 08:08:35;;;;;;;10.27;6.00;;;9.70;53.80;;;;;;4725859;28;10000689;-80
2021/12/18 08:11:01;;;;;;;10.30;6.65;;;9.70;53.60;;;;;;5073686;28;20261;-84
2021/12/18 08:13:26;;;;;;;11.40;6.43;;;9.40;54.60;;;;;;5055580;28;20044;-80
2021/12/18 08:15:55;;;;;;;11.45;5.47;;;9.80;53.90;;;;;;5058795;28;20013;-81
2021/12/18 08:18:20;;;;;;;12.15;6.20;;;9.50;54.30;;;;;;5054999;28;20059;-81
2021/12/18 08:20:46;;;;;;;12.30;5.80;;;9.60;54.50;;;;;;5054958;28;20048;-80
2021/12/18 08:23:12;;;;;;;11.38;5.63;;;9.80;54.40;;;;;;5055247;28;20371;-81
2021/12/18 08:25:38;;;;;;;12.00;5.55;;;9.80;53.60;;;;;;5073469;28;20428;-80
2021/12/18 08:28:05;;;;;;;10.32;6.05;;;9.60;53.80;;;;;;5055766;28;20070;-81
2021/12/18 08:30:37;;;;;;;10.98;6.50;;;9.50;54.70;;;;;;5055990;28;20474;-82
2021/12/18 08:33:04;;;;;;;9.10;5.47;;;9.30;55.30;;;;;;5047384;28;20094;-82
2021/12/18 08:35:31;;;;;;;21.20;12.50;;;9.40;55.10;;;;;;5056676;28;20094;-81
2021/12/18 08:37:59;;;;;;;12.05;5.68;;;9.50;55.50;;;;;;5055589;28;20016;-89
2021/12/18 08:40:26;;;;;;;11.35;6.97;;;9.70;54.60;;;;;;5055713;28;20017;-83
2021/12/18 08:43:01;;;;;;;8.65;5.20;;;9.90;54.80;;;;;;5056146;28;20352;-82
2021/12/18 08:45:27;;;;;;;12.25;6.45;;;10.40;54.10;;;;;;5071609;28;20031;-79
2021/12/18 08:47:53;;;;;;;11.45;5.63;;;12.10;51.80;;;;;;5065440;28;20021;-83
2021/12/18 08:50:20;;;;;;;12.23;5.95;;;13.80;49.30;;;;;;5072558;28;20024;-82
2021/12/18 08:52:52;;;;;;;20.33;5.57;;;15.60;47.00;;;;;;5072655;28;20544;-84
2021/12/18 08:55:20;;;;;;;15.48;5.68;;;17.10;43.70;;;;;;5071753;28;20040;-81
2021/12/18 08:57:46;;;;;;;9.93;5.43;;;17.10;43.60;;;;;;5073898;28;20024;-83
2021/12/18 09:00:16;;;;;;;11.00;5.95;;;17.20;43.30;;;;;;5084427;28;20443;-84
2021/12/18 09:02:42;;;;;;;8.85;5.78;;;17.50;43.40;;;;;;5056021;28;20056;-82
2021/12/18 09:05:11;;;;;;;10.60;6.97;;;18.30;42.00;;;;;;4720889;28;10000333;-81
2021/12/18 09:07:37;;;;;;;14.02;6.10;;;19.00;41.70;;;;;;5052225;28;20028;-82
2021/12/18 09:10:05;;;;;;;12.60;6.20;;;19.30;41.60;;;;;;5076733;28;20012;-80
2021/12/18 09:12:33;;;;;;;10.90;5.97;;;19.10;41.50;;;;;;5070214;28;20111;-80
2021/12/18 09:14:59;;;;;;;13.43;9.35;;;19.70;41.10;;;;;;5052648;28;20119;-81
2021/12/18 09:17:25;;;;;;;12.98;8.02;;;19.80;40.80;;;;;;5069759;28;20027;-81
2021/12/18 09:19:51;;;;;;;10.18;5.57;;;20.10;40.50;;;;;;5052051;28;20090;-79
2021/12/18 09:22:17;;;;;;;9.68;5.78;;;20.60;40.00;;;;;;5065904;28;20020;-81
2021/12/18 09:24:43;;;;;;;9.40;5.43;;;21.00;39.70;;;;;;5051275;28;20016;-82
2021/12/18 09:27:09;;;;;;;10.63;5.68;;;20.00;39.80;;;;;;5052654;28;20025;-80
2021/12/18 09:29:35;;;;;;;10.70;5.88;;;19.40;40.80;;;;;;5062771;28;20530;-81
2021/12/18 09:32:00;;;;;;;14.50;6.95;;;19.10;40.70;;;;;;5052115;28;20115;-79
2021/12/18 09:34:28;;;;;;;10.38;5.13;;;19.20;40.40;;;;;;5070195;28;20482;-82
2021/12/18 09:36:55;;;;;;;9.32;5.68;;;19.50;40.50;;;;;;5053053;28;20021;-79
2021/12/18 09:39:20;;;;;;;12.85;5.55;;;18.30;41.50;;;;;;5051971;28;20108;-82
2021/12/18 09:41:50;;;;;;;14.27;7.72;;;18.00;41.70;;;;;;5051716;28;20408;-80
2021/12/18 09:44:29;;;;;;;8.00;5.03;;;18.30;41.40;;;;;;5051864;28;20021;-83
2021/12/18 09:46:56;;;;;;;16.42;11.30;;;18.70;41.10;;;;;;5052670;28;20028;-83
2021/12/18 09:49:22;;;;;;;14.60;8.20;;;17.70;42.70;;;;;;5052711;28;20021;-79
2021/12/18 09:51:49;;;;;;;12.57;6.63;;;16.70;42.90;;;;;;5052062;28;20017;-79
2021/12/18 09:54:15;;;;;;;10.43;4.90;;;16.10;44.20;;;;;;5069660;28;20084;-80
2021/12/18 09:56:44;;;;;;;11.23;6.53;;;17.00;43.00;;;;;;5051143;28;20074;-87
2021/12/18 09:59:10;;;;;;;14.50;7.78;;;16.80;42.60;;;;;;5082057;28;20020;-85
2021/12/18 10:01:36;;;;;;;13.38;8.65;;;16.70;43.40;;;;;;5051227;28;20039;-79
2021/12/18 10:04:04;;;;;;;9.55;5.40;;;17.00;42.60;;;;;;5052183;28;20025;-81
2021/12/18 10:06:39;;;;;;;12.25;7.65;;;17.10;43.00;;;;;;5051616;28;20021;-82
2021/12/18 10:09:25;;;;;;;13.82;7.00;;;18.20;41.90;;;;;;5052384;28;20020;-80
2021/12/18 10:12:19;;;;;;;8.85;5.88;;;18.80;41.00;;;;;;5055600;28;20033;-80
2021/12/18 10:14:52;;;;;;;10.98;5.63;;;18.50;40.70;;;;;;5069605;28;20440;-83
2021/12/18 10:17:39;;;;;;;8.80;4.80;;;18.30;42.00;;;;;;5051181;28;20031;-84
2021/12/18 10:20:21;;;;;;;7.57;4.38;;;18.10;41.40;;;;;;5051198;28;20020;-79
2021/12/18 10:22:53;;;;;;;10.77;5.60;;;17.60;41.90;;;;;;5069008;28;20104;-79
2021/12/18 10:25:31;;;;;;;9.90;5.50;;;16.70;42.20;;;;;;5068994;28;20009;-79
2021/12/18 10:28:07;;;;;;;7.90;5.18;;;15.90;44.10;;;;;;5050690;28;20024;-81
2021/12/18 10:30:33;;;;;;;10.57;5.95;;;15.00;44.50;;;;;;5051090;28;20356;-81
2021/12/18 10:33:05;;;;;;;12.82;7.13;;;14.00;45.70;;;;;;5052308;28;20484;-80
2021/12/18 10:35:48;;;;;;;10.98;6.40;;;13.80;46.70;;;;;;5052819;28;20036;-80
2021/12/18 10:38:54;;;;;;;10.48;5.50;;;13.80;46.60;;;;;;5073540;28;20078;-85
2021/12/18 10:41:28;;;;;;;11.27;5.75;;;13.80;47.00;;;;;;5053213;28;20028;-79
2021/12/18 10:44:00;;;;;;;11.63;5.13;;;13.60;46.80;;;;;;5051115;28;20105;-81
2021/12/18 10:46:26;;;;;;;10.85;5.80;;;13.20;47.40;;;;;;5055857;28;20442;-79
2021/12/18 10:49:02;;;;;;;9.27;5.57;;;12.30;48.70;;;;;;5056103;28;20035;-79
2021/12/18 10:51:31;;;;;;;10.85;5.43;;;12.00;49.40;;;;;;5065532;28;20063;-80
2021/12/18 10:54:05;;;;;;;12.27;6.50;;;12.50;48.60;;;;;;5080576;28;20106;-82
2021/12/18 10:56:33;;;;;;;10.05;6.55;;;12.20;48.70;;;;;;5058355;28;20361;-85
2021/12/18 10:58:59;;;;;;;8.60;4.68;;;12.80;48.70;;;;;;5051357;28;20030;-79
2021/12/18 11:01:24;;;;;;;9.60;5.32;;;13.10;47.60;;;;;;5055422;28;20024;-80
2021/12/18 11:03:51;;;;;;;11.77;5.88;;;12.80;47.80;;;;;;5055597;28;20127;-84
2021/12/18 11:06:23;;;;;;;9.57;4.90;;;12.90;47.90;;;;;;5060066;28;20032;-81
2021/12/18 11:09:07;;;;;;;10.88;5.22;;;12.60;48.00;;;;;;5086005;28;20115;-88
2021/12/18 11:14:21;;;;;;;17.35;9.77;;;12.70;48.70;;;;;;5084726;28;20044;-82
2021/12/18 11:16:58;;;;;;;23.30;13.95;;;12.40;48.10;;;;;;5054800;28;20036;-82
2021/12/18 11:19:27;;;;;;;9.90;5.78;;;12.20;48.20;;;;;;5037350;28;20059;-84
2021/12/18 11:22:02;;;;;;;23.50;14.55;;;12.00;48.70;;;;;;5073198;28;20031;-80
2021/12/18 11:24:32;;;;;;;16.00;10.90;;;12.30;49.60;;;;;;5072768;28;20020;-81
2021/12/18 11:26:59;;;;;;;12.73;7.18;;;12.30;48.90;;;;;;5055126;28;20031;-83
2021/12/18 11:29:40;;;;;;;12.60;7.28;;;12.80;48.50;;;;;;5069186;28;20032;-80
2021/12/18 11:32:09;;;;;;;12.52;7.72;;;12.50;48.80;;;;;;5055236;28;20035;-87
2021/12/18 11:34:37;;;;;;;22.77;12.80;;;12.70;48.20;;;;;;5054981;28;20041;-80
2021/12/18 11:37:05;;;;;;;7.78;5.10;;;12.70;48.50;;;;;;5053121;28;20032;-80
2021/12/18 11:39:31;;;;;;;10.63;6.20;;;12.30;48.50;;;;;;5054115;28;20032;-89
2021/12/18 11:41:57;;;;;;;7.95;4.38;;;12.00;49.60;;;;;;5071204;28;20434;-80
2021/12/18 11:44:34;;;;;;;8.18;4.53;;;11.80;49.50;;;;;;5054245;28;20379;-81
2021/12/18 11:47:24;;;;;;;10.02;4.45;;;11.90;49.50;;;;;;5054556;28;20071;-80
2021/12/18 11:49:51;;;;;;;10.35;4.65;;;11.90;49.50;;;;;;5072618;28;20097;-80
2021/12/18 11:52:17;;;;;;;8.55;5.13;;;11.40;50.10;;;;;;5054398;28;20040;-79
2021/12/18 11:55:09;;;;;;;10.80;6.18;;;11.40;50.70;;;;;;5053715;28;20056;-82
2021/12/18 11:57:50;;;;;;;10.52;6.00;;;11.30;50.70;;;;;;5030951;28;20037;-79
2021/12/18 12:00:15;;;;;;;9.70;5.65;;;11.90;50.00;;;;;;5074138;28;20024;-79
2021/12/18 12:02:52;;;;;;;8.73;4.65;;;12.10;49.50;;;;;;5074428;28;20046;-79
2021/12/18 12:05:30;;;;;;;10.35;5.60;;;12.20;49.50;;;;;;5056773;28;20035;-80
2021/12/18 12:08:35;;;;;;;8.05;4.38;;;12.20;49.60;;;;;;5056735;28;20024;-79
2021/12/18 12:11:15;;;;;;;9.38;4.80;;;11.90;49.10;;;;;;5054742;28;20426;-79
2021/12/18 12:14:00;;;;;;;10.48;5.32;;;11.30;50.70;;;;;;5063187;28;20044;-79
2021/12/18 12:16:44;;;;;;;8.95;5.05;;;11.40;51.40;;;;;;5056035;28;20479;-80
2021/12/18 12:19:40;;;;;;;8.38;4.35;;;11.90;50.20;;;;;;5056365;28;20485;-79
2021/12/18 12:22:29;;;;;;;9.07;4.70;;;11.80;50.00;;;;;;5051617;28;20027;-79
2021/12/18 12:24:59;;;;;;;8.55;4.75;;;11.80;49.70;;;;;;5074300;28;20103;-79
2021/12/18 12:27:32;;;;;;;11.32;4.40;;;11.70;50.20;;;;;;5074215;28;20020;-80
2021/12/18 12:30:00;;;;;;;8.85;5.35;;;11.80;49.90;;;;;;5056279;28;20090;-79
2021/12/18 12:32:27;;;;;;;11.95;5.30;;;11.60;50.40;;;;;;5055886;28;20032;-80
2021/12/18 12:35:12;;;;;;;8.80;5.22;;;11.50;50.50;;;;;;5056223;28;20040;-80
2021/12/18 12:37:46;;;;;;;9.88;5.13;;;11.90;50.50;;;;;;5056024;28;20086;-80
2021/12/18 12:40:17;;;;;;;8.85;4.78;;;12.00;50.40;;;;;;5055776;28;20476;-80
2021/12/18 12:43:01;;;;;;;;;;;11.90;49.80;;;;;;5056278;28;20115;-79
2021/12/18 12:45:40;;;;;;;9.05;4.65;;;11.70;50.10;;;;;;5073571;28;19908;-79
2021/12/18 12:48:05;;;;;;;9.80;4.75;;;11.90;50.50;;;;;;5055841;28;20403;-80
2021/12/18 12:50:32;;;;;;;10.73;5.90;;;12.20;49.70;;;;;;5055760;28;20491;-79
2021/12/18 12:53:04;;;;;;;8.73;5.53;;;12.60;49.40;;;;;;5055567;28;20016;-80
2021/12/18 12:55:50;;;;;;;9.23;5.18;;;12.80;49.20;;;;;;5050935;28;20076;-80
2021/12/18 12:58:24;;;;;;;25.92;10.50;;;13.30;48.30;;;;;;5072484;28;20020;-81
2021/12/18 13:00:57;;;;;;;49.70;24.98;;;12.60;48.80;;;;;;5073589;28;20024;-79
2021/12/18 13:03:27;;;;;;;21.25;9.32;;;12.30;49.80;;;;;;5073331;28;20533;-80
2021/12/18 13:05:54;;;;;;;11.85;6.68;;;12.00;50.30;;;;;;5073564;28;20063;-79
2021/12/18 13:08:22;;;;;;;13.20;7.30;;;12.00;49.50;;;;;;5055958;28;20115;-79
2021/12/18 13:10:51;;;;;;;12.48;6.97;;;11.00;50.80;;;;;;5055203;28;20036;-81
2021/12/18 13:13:19;;;;;;;9.55;5.60;;;11.10;52.40;;;;;;5073198;28;20025;-80
2021/12/18 13:16:14;;;;;;;12.77;5.55;;;11.50;51.50;;;;;;5073238;28;20012;-80
2021/12/18 13:18:46;;;;;;;10.15;5.60;;;11.10;51.80;;;;;;5071041;28;20017;-85
2021/12/18 13:21:24;;;;;;;9.18;5.60;;;11.00;52.00;;;;;;5054628;28;20173;-85
2021/12/18 13:23:52;;;;;;;7.28;4.82;;;10.80;52.30;;;;;;5067348;28;20044;-79
2021/12/18 13:26:23;;;;;;;9.85;5.20;;;10.50;52.90;;;;;;5055477;28;20392;-80
2021/12/18 13:28:50;;;;;;;;;;;10.60;52.80;;;;;;5049667;28;20086;-78
2021/12/18 13:31:17;;;;;;;10.60;6.38;;;10.70;53.20;;;;;;5038448;28;19908;-80
2021/12/18 13:33:43;;;;;;;10.70;5.57;;;10.60;52.90;;;;;;5054098;28;20049;-83
2021/12/18 13:36:09;;;;;;;12.07;6.35;;;10.90;53.20;;;;;;5072806;28;20042;-80
2021/12/18 13:38:45;;;;;;;10.77;6.30;;;11.00;52.80;;;;;;5072543;28;20029;-78
2021/12/18 13:41:13;;;;;;;8.48;5.22;;;11.30;52.40;;;;;;5067958;28;20479;-84
2021/12/18 13:43:40;;;;;;;12.70;6.15;;;11.20;51.90;;;;;;5054795;28;20495;-79
2021/12/18 13:46:11;;;;;;;15.35;7.78;;;10.80;53.10;;;;;;5054118;28;20021;-79